sensor_id;sensor_type;location;lat;lon;timestamp;temperature;humidity
71297;SHT31;59082;50.658;4.608;2023-03-01T00:02:20;-2.09;91.80
71297;SHT31;59082;50.658;4.608;2023-03-01T00:04:46;-2.18;92.07
71297;SHT31;59082;50.658;4.608;2023-03-01T00:07:12;-2.21;92.67
71297;SHT31;59082;50.658;4.608;2023-03-01T00:09:37;-2.24;92.39
71297;SHT31;59082;50.658;4.608;2023-03-01T00:12:04;-2.44;92.93
71297;SHT31;59082;50.658;4.608;2023-03-01T00:14:29;-2.41;93.45
71297;SHT31;59082;50.658;4.608;2023-03-01T00:16:56;-2.47;93.64
71297;SHT31;59082;50.658;4.608;2023-03-01T00:19:21;-2.34;93.27
71297;SHT31;59082;50.658;4.608;2023-03-01T00:21:48;-2.51;93.73
71297;SHT31;59082;50.658;4.608;2023-03-01T00:24:14;-2.57;94.13
71297;SHT31;59082;50.658;4.608;2023-03-01T00:26:40;-2.64;94.34
71297;SHT31;59082;50.658;4.608;2023-03-01T00:29:06;-2.58;94.33
71297;SHT31;59082;50.658;4.608;2023-03-01T00:31:32;-2.68;94.37
71297;SHT31;59082;50.658;4.608;2023-03-01T00:34:00;-2.69;94.46
71297;SHT31;59082;50.658;4.608;2023-03-01T00:36:32;-2.75;94.69
71297;SHT31;59082;50.658;4.608;2023-03-01T00:38:58;-2.73;94.89
71297;SHT31;59082;50.658;4.608;2023-03-01T00:41:24;-2.82;95.15
71297;SHT31;59082;50.658;4.608;2023-03-01T00:43:52;-2.70;94.93
71297;SHT31;59082;50.658;4.608;2023-03-01T00:46:23;-2.62;94.98
71297;SHT31;59082;50.658;4.608;2023-03-01T00:48:50;-2.79;94.76
71297;SHT31;59082;50.658;4.608;2023-03-01T00:51:18;-2.77;95.55
71297;SHT31;59082;50.658;4.608;2023-03-01T00:53:44;-2.93;95.76
71297;SHT31;59082;50.658;4.608;2023-03-01T00:56:12;-2.90;95.76
71297;SHT31;59082;50.658;4.608;2023-03-01T00:58:38;-2.93;95.92
71297;SHT31;59082;50.658;4.608;2023-03-01T01:01:12;-3.01;96.19
71297;SHT31;59082;50.658;4.608;2023-03-01T01:03:48;-3.07;96.24
71297;SHT31;59082;50.658;4.608;2023-03-01T01:06:20;-3.16;96.46
71297;SHT31;59082;50.658;4.608;2023-03-01T01:08:46;-3.20;96.65
71297;SHT31;59082;50.658;4.608;2023-03-01T01:11:12;-3.20;96.68
71297;SHT31;59082;50.658;4.608;2023-03-01T01:13:39;-2.97;96.39
71297;SHT31;59082;50.658;4.608;2023-03-01T01:16:05;-3.17;96.43
71297;SHT31;59082;50.658;4.608;2023-03-01T01:18:31;-3.20;96.91
71297;SHT31;59082;50.658;4.608;2023-03-01T01:20:56;-3.16;97.25
71297;SHT31;59082;50.658;4.608;2023-03-01T01:23:22;-2.75;96.57
71297;SHT31;59082;50.658;4.608;2023-03-01T01:25:48;-2.77;95.95
71297;SHT31;59082;50.658;4.608;2023-03-01T01:28:13;-2.96;96.30
71297;SHT31;59082;50.658;4.608;2023-03-01T01:30:39;-2.92;96.52
71297;SHT31;59082;50.658;4.608;2023-03-01T01:33:04;-2.95;96.63
71297;SHT31;59082;50.658;4.608;2023-03-01T01:35:31;-3.03;96.70
71297;SHT31;59082;50.658;4.608;2023-03-01T01:37:56;-2.75;96.10
71297;SHT31;59082;50.658;4.608;2023-03-01T01:40:22;-2.96;96.29
71297;SHT31;59082;50.658;4.608;2023-03-01T01:42:47;-2.92;96.26
71297;SHT31;59082;50.658;4.608;2023-03-01T01:45:34;-2.87;96.27
71297;SHT31;59082;50.658;4.608;2023-03-01T01:48:07;-3.00;96.36
71297;SHT31;59082;50.658;4.608;2023-03-01T01:50:38;-3.14;96.76
71297;SHT31;59082;50.658;4.608;2023-03-01T01:53:15;-3.23;97.00
71297;SHT31;59082;50.658;4.608;2023-03-01T01:55:45;-3.34;97.31
71297;SHT31;59082;50.658;4.608;2023-03-01T01:58:16;-3.37;97.82
71297;SHT31;59082;50.658;4.608;2023-03-01T02:00:43;-3.45;98.20
71297;SHT31;59082;50.658;4.608;2023-03-01T02:03:11;-3.47;98.33
71297;SHT31;59082;50.658;4.608;2023-03-01T02:05:46;-3.18;97.67
71297;SHT31;59082;50.658;4.608;2023-03-01T02:08:14;-3.10;97.22
71297;SHT31;59082;50.658;4.608;2023-03-01T02:10:42;-3.11;97.24
71297;SHT31;59082;50.658;4.608;2023-03-01T02:13:07;-3.34;97.46
71297;SHT31;59082;50.658;4.608;2023-03-01T02:15:34;-3.34;98.17
71297;SHT31;59082;50.658;4.608;2023-03-01T02:18:01;-3.34;98.10
71297;SHT31;59082;50.658;4.608;2023-03-01T02:20:39;-3.48;98.36
71297;SHT31;59082;50.658;4.608;2023-03-01T02:23:09;-3.55;98.76
71297;SHT31;59082;50.658;4.608;2023-03-01T02:26:23;-3.50;98.99
71297;SHT31;59082;50.658;4.608;2023-03-01T02:28:33;-3.62;99.21
71297;SHT31;59082;50.658;4.608;2023-03-01T02:31:00;-3.59;99.40
71297;SHT31;59082;50.658;4.608;2023-03-01T02:33:45;-3.54;99.44
71297;SHT31;59082;50.658;4.608;2023-03-01T02:36:28;-3.55;99.25
71297;SHT31;59082;50.658;4.608;2023-03-01T02:39:00;-3.48;99.46
71297;SHT31;59082;50.658;4.608;2023-03-01T02:41:28;-3.62;98.90
71297;SHT31;59082;50.658;4.608;2023-03-01T02:43:56;-3.68;99.63
71297;SHT31;59082;50.658;4.608;2023-03-01T02:46:24;-3.76;99.98
71297;SHT31;59082;50.658;4.608;2023-03-01T02:48:54;-3.65;99.44
71297;SHT31;59082;50.658;4.608;2023-03-01T02:51:42;-3.69;99.14
71297;SHT31;59082;50.658;4.608;2023-03-01T02:54:50;-3.81;99.81
71297;SHT31;59082;50.658;4.608;2023-03-01T02:57:08;-3.87;99.99
71297;SHT31;59082;50.658;4.608;2023-03-01T02:59:35;-4.03;99.99
71297;SHT31;59082;50.658;4.608;2023-03-01T03:02:05;-3.92;99.99
71297;SHT31;59082;50.658;4.608;2023-03-01T03:04:31;-3.96;99.99
71297;SHT31;59082;50.658;4.608;2023-03-01T03:06:57;-3.97;99.99
71297;SHT31;59082;50.658;4.608;2023-03-01T03:09:23;-3.93;99.99
71297;SHT31;59082;50.658;4.608;2023-03-01T03:11:49;-4.03;99.99
71297;SHT31;59082;50.658;4.608;2023-03-01T03:14:16;-3.94;99.99
71297;SHT31;59082;50.658;4.608;2023-03-01T03:16:44;-4.06;99.99
71297;SHT31;59082;50.658;4.608;2023-03-01T03:19:11;-4.02;99.99
71297;SHT31;59082;50.658;4.608;2023-03-01T03:21:37;-4.06;99.99
71297;SHT31;59082;50.658;4.608;2023-03-01T03:24:03;-4.17;99.99
71297;SHT31;59082;50.658;4.608;2023-03-01T03:26:29;-4.23;99.99
71297;SHT31;59082;50.658;4.608;2023-03-01T03:28:55;-4.13;99.99
71297;SHT31;59082;50.658;4.608;2023-03-01T03:31:20;-4.10;99.99
71297;SHT31;59082;50.658;4.608;2023-03-01T03:33:46;-4.06;99.99
71297;SHT31;59082;50.658;4.608;2023-03-01T03:36:20;-4.07;99.99
71297;SHT31;59082;50.658;4.608;2023-03-01T03:38:46;-4.04;99.99
71297;SHT31;59082;50.658;4.608;2023-03-01T03:41:12;-4.09;99.99
71297;SHT31;59082;50.658;4.608;2023-03-01T03:43:40;-4.13;99.99
71297;SHT31;59082;50.658;4.608;2023-03-01T03:46:08;-4.04;99.99
71297;SHT31;59082;50.658;4.608;2023-03-01T03:48:37;-4.13;99.99
71297;SHT31;59082;50.658;4.608;2023-03-01T03:51:03;-4.04;99.99
71297;SHT31;59082;50.658;4.608;2023-03-01T03:53:33;-3.75;99.99
71297;SHT31;59082;50.658;4.608;2023-03-01T03:55:59;-3.82;99.99
71297;SHT31;59082;50.658;4.608;2023-03-01T03:58:25;-3.65;99.99
71297;SHT31;59082;50.658;4.608;2023-03-01T04:00:55;-3.61;99.99
71297;SHT31;59082;50.658;4.608;2023-03-01T04:03:24;-3.56;99.99
71297;SHT31;59082;50.658;4.608;2023-03-01T04:05:50;-3.62;99.99
71297;SHT31;59082;50.658;4.608;2023-03-01T04:08:18;-3.75;99.99
71297;SHT31;59082;50.658;4.608;2023-03-01T04:10:47;-3.55;99.99
71297;SHT31;59082;50.658;4.608;2023-03-01T04:13:17;-3.75;99.99
71297;SHT31;59082;50.658;4.608;2023-03-01T04:15:45;-3.81;99.99
71297;SHT31;59082;50.658;4.608;2023-03-01T04:18:13;-3.96;99.99
71297;SHT31;59082;50.658;4.608;2023-03-01T04:20:39;-4.04;99.99
71297;SHT31;59082;50.658;4.608;2023-03-01T04:23:10;-4.04;99.99
71297;SHT31;59082;50.658;4.608;2023-03-01T04:25:41;-4.07;99.99
71297;SHT31;59082;50.658;4.608;2023-03-01T04:28:07;-4.07;99.99
71297;SHT31;59082;50.658;4.608;2023-03-01T04:30:33;-4.13;99.99
71297;SHT31;59082;50.658;4.608;2023-03-01T04:33:05;-4.13;99.99
71297;SHT31;59082;50.658;4.608;2023-03-01T04:35:32;-4.06;99.99
71297;SHT31;59082;50.658;4.608;2023-03-01T04:37:57;-4.11;99.99
71297;SHT31;59082;50.658;4.608;2023-03-01T04:40:23;-4.23;99.99
71297;SHT31;59082;50.658;4.608;2023-03-01T04:42:50;-4.24;99.99
71297;SHT31;59082;50.658;4.608;2023-03-01T04:45:16;-4.18;99.99
71297;SHT31;59082;50.658;4.608;2023-03-01T04:47:43;-4.13;99.99
71297;SHT31;59082;50.658;4.608;2023-03-01T04:50:12;-4.24;99.99
71297;SHT31;59082;50.658;4.608;2023-03-01T04:52:38;-4.32;99.99
71297;SHT31;59082;50.658;4.608;2023-03-01T04:55:05;-4.28;99.99
71297;SHT31;59082;50.658;4.608;2023-03-01T04:57:31;-4.03;99.99
71297;SHT31;59082;50.658;4.608;2023-03-01T04:59:58;-4.13;99.99
71297;SHT31;59082;50.658;4.608;2023-03-01T05:02:23;-4.06;99.99
71297;SHT31;59082;50.658;4.608;2023-03-01T05:04:49;-4.28;99.99
71297;SHT31;59082;50.658;4.608;2023-03-01T05:07:14;-4.13;99.99
71297;SHT31;59082;50.658;4.608;2023-03-01T05:09:47;-4.23;99.99
71297;SHT31;59082;50.658;4.608;2023-03-01T05:12:13;-4.37;99.99
71297;SHT31;59082;50.658;4.608;2023-03-01T05:14:41;-4.34;99.99
71297;SHT31;59082;50.658;4.608;2023-03-01T05:17:07;-4.35;99.99
71297;SHT31;59082;50.658;4.608;2023-03-01T05:19:34;-4.21;99.99
71297;SHT31;59082;50.658;4.608;2023-03-01T05:21:59;-4.23;99.99
71297;SHT31;59082;50.658;4.608;2023-03-01T05:24:33;-4.44;99.99
71297;SHT31;59082;50.658;4.608;2023-03-01T05:27:00;-4.41;99.99
71297;SHT31;59082;50.658;4.608;2023-03-01T05:29:27;-4.54;99.99
71297;SHT31;59082;50.658;4.608;2023-03-01T05:31:58;-4.44;99.99
71297;SHT31;59082;50.658;4.608;2023-03-01T05:34:26;-4.54;99.99
71297;SHT31;59082;50.658;4.608;2023-03-01T05:36:53;-4.37;99.99
71297;SHT31;59082;50.658;4.608;2023-03-01T05:39:20;-4.52;99.99
71297;SHT31;59082;50.658;4.608;2023-03-01T05:41:48;-4.51;99.99
71297;SHT31;59082;50.658;4.608;2023-03-01T05:44:17;-4.51;99.99
71297;SHT31;59082;50.658;4.608;2023-03-01T05:46:42;-4.54;99.99
71297;SHT31;59082;50.658;4.608;2023-03-01T05:49:08;-4.58;99.99
71297;SHT31;59082;50.658;4.608;2023-03-01T05:51:34;-4.57;99.99
71297;SHT31;59082;50.658;4.608;2023-03-01T05:53:59;-4.72;99.99
71297;SHT31;59082;50.658;4.608;2023-03-01T05:56:26;-4.71;99.99
71297;SHT31;59082;50.658;4.608;2023-03-01T05:58:51;-4.41;99.99
71297;SHT31;59082;50.658;4.608;2023-03-01T06:01:17;-4.40;99.99
71297;SHT31;59082;50.658;4.608;2023-03-01T06:03:43;-4.45;99.99
71297;SHT31;59082;50.658;4.608;2023-03-01T06:06:08;-4.57;99.99
71297;SHT31;59082;50.658;4.608;2023-03-01T06:08:34;-4.82;99.99
71297;SHT31;59082;50.658;4.608;2023-03-01T06:10:59;-4.78;99.99
71297;SHT31;59082;50.658;4.608;2023-03-01T06:13:25;-4.68;99.99
71297;SHT31;59082;50.658;4.608;2023-03-01T06:15:50;-4.75;99.99
71297;SHT31;59082;50.658;4.608;2023-03-01T06:18:17;-4.80;99.99
71297;SHT31;59082;50.658;4.608;2023-03-01T06:20:42;-4.64;99.99
71297;SHT31;59082;50.658;4.608;2023-03-01T06:23:08;-4.71;99.99
71297;SHT31;59082;50.658;4.608;2023-03-01T06:25:33;-4.78;99.99
71297;SHT31;59082;50.658;4.608;2023-03-01T06:27:59;-4.75;99.99
71297;SHT31;59082;50.658;4.608;2023-03-01T06:30:25;-4.45;99.99
71297;SHT31;59082;50.658;4.608;2023-03-01T06:32:51;-4.58;99.99
71297;SHT31;59082;50.658;4.608;2023-03-01T06:35:18;-4.55;99.99
71297;SHT31;59082;50.658;4.608;2023-03-01T06:37:45;-4.62;99.99
71297;SHT31;59082;50.658;4.608;2023-03-01T06:40:11;-4.62;99.99
71297;SHT31;59082;50.658;4.608;2023-03-01T06:42:40;-4.31;99.99
71297;SHT31;59082;50.658;4.608;2023-03-01T06:45:07;-4.35;99.99
71297;SHT31;59082;50.658;4.608;2023-03-01T06:47:33;-4.42;99.99
71297;SHT31;59082;50.658;4.608;2023-03-01T06:50:00;-4.45;99.99
71297;SHT31;59082;50.658;4.608;2023-03-01T06:52:27;-4.47;99.99
71297;SHT31;59082;50.658;4.608;2023-03-01T06:54:52;-4.27;99.99
71297;SHT31;59082;50.658;4.608;2023-03-01T06:57:18;-4.13;99.99
71297;SHT31;59082;50.658;4.608;2023-03-01T06:59:44;-4.15;99.99
71297;SHT31;59082;50.658;4.608;2023-03-01T07:02:11;-4.17;99.99
71297;SHT31;59082;50.658;4.608;2023-03-01T07:04:38;-4.09;99.99
71297;SHT31;59082;50.658;4.608;2023-03-01T07:07:05;-4.14;99.99
71297;SHT31;59082;50.658;4.608;2023-03-01T07:09:30;-4.04;99.99
71297;SHT31;59082;50.658;4.608;2023-03-01T07:11:57;-3.92;99.99
71297;SHT31;59082;50.658;4.608;2023-03-01T07:14:22;-3.92;99.99
71297;SHT31;59082;50.658;4.608;2023-03-01T07:17:02;-3.69;99.99
71297;SHT31;59082;50.658;4.608;2023-03-01T07:19:28;-3.52;99.99
71297;SHT31;59082;50.658;4.608;2023-03-01T07:21:54;-3.47;99.99
71297;SHT31;59082;50.658;4.608;2023-03-01T07:24:21;-3.25;99.99
71297;SHT31;59082;50.658;4.608;2023-03-01T07:26:51;-3.06;99.99
71297;SHT31;59082;50.658;4.608;2023-03-01T07:29:17;-2.79;99.99
71297;SHT31;59082;50.658;4.608;2023-03-01T07:31:43;-2.55;99.44
71297;SHT31;59082;50.658;4.608;2023-03-01T07:34:08;-2.48;98.70
71297;SHT31;59082;50.658;4.608;2023-03-01T07:36:34;-2.17;98.03
71297;SHT31;59082;50.658;4.608;2023-03-01T07:39:00;-1.73;96.53
71297;SHT31;59082;50.658;4.608;2023-03-01T07:41:27;-1.44;95.64
71297;SHT31;59082;50.658;4.608;2023-03-01T07:43:53;-1.14;94.30
71297;SHT31;59082;50.658;4.608;2023-03-01T07:46:19;-1.05;94.19
71297;SHT31;59082;50.658;4.608;2023-03-01T07:48:46;-0.29;92.27
71297;SHT31;59082;50.658;4.608;2023-03-01T07:51:11;0.22;90.61
71297;SHT31;59082;50.658;4.608;2023-03-01T07:53:37;0.66;88.67
71297;SHT31;59082;50.658;4.608;2023-03-01T07:56:11;0.79;88.40
71297;SHT31;59082;50.658;4.608;2023-03-01T07:58:39;0.85;87.78
71297;SHT31;59082;50.658;4.608;2023-03-01T08:01:07;1.50;86.93
71297;SHT31;59082;50.658;4.608;2023-03-01T08:03:33;2.34;84.63
71297;SHT31;59082;50.658;4.608;2023-03-01T08:06:00;1.65;84.83
71297;SHT31;59082;50.658;4.608;2023-03-01T08:08:25;2.40;84.73
71297;SHT31;59082;50.658;4.608;2023-03-01T08:10:52;1.73;83.88
71297;SHT31;59082;50.658;4.608;2023-03-01T08:13:32;1.68;84.83
71297;SHT31;59082;50.658;4.608;2023-03-01T08:16:06;3.05;82.12
71297;SHT31;59082;50.658;4.608;2023-03-01T08:18:31;2.23;83.08
71297;SHT31;59082;50.658;4.608;2023-03-01T08:21:08;3.28;81.45
71297;SHT31;59082;50.658;4.608;2023-03-01T08:23:34;3.05;80.75
71297;SHT31;59082;50.658;4.608;2023-03-01T08:26:11;4.39;79.07
71297;SHT31;59082;50.658;4.608;2023-03-01T08:28:38;5.58;76.71
71297;SHT31;59082;50.658;4.608;2023-03-01T08:31:17;7.87;72.30
71297;SHT31;59082;50.658;4.608;2023-03-01T08:33:44;8.87;68.75
71297;SHT31;59082;50.658;4.608;2023-03-01T08:36:16;10.79;65.23
71297;SHT31;59082;50.658;4.608;2023-03-01T08:38:42;11.17;64.21
71297;SHT31;59082;50.658;4.608;2023-03-01T08:41:07;11.54;61.89
71297;SHT31;59082;50.658;4.608;2023-03-01T08:43:33;12.38;60.68
71297;SHT31;59082;50.658;4.608;2023-03-01T08:45:58;14.12;57.99
71297;SHT31;59082;50.658;4.608;2023-03-01T08:48:24;13.55;58.10
71297;SHT31;59082;50.658;4.608;2023-03-01T08:50:50;14.91;56.19
71297;SHT31;59082;50.658;4.608;2023-03-01T08:53:16;15.73;54.22
71297;SHT31;59082;50.658;4.608;2023-03-01T08:55:42;16.24;53.37
71297;SHT31;59082;50.658;4.608;2023-03-01T08:58:07;16.75;51.90
71297;SHT31;59082;50.658;4.608;2023-03-01T09:00:33;17.31;51.48
71297;SHT31;59082;50.658;4.608;2023-03-01T09:03:00;16.11;52.19
71297;SHT31;59082;50.658;4.608;2023-03-01T09:05:26;17.14;51.90
71297;SHT31;59082;50.658;4.608;2023-03-01T09:07:51;18.76;49.71
71297;SHT31;59082;50.658;4.608;2023-03-01T09:10:17;17.41;49.46
71297;SHT31;59082;50.658;4.608;2023-03-01T09:12:42;18.96;49.89
71297;SHT31;59082;50.658;4.608;2023-03-01T09:15:12;19.23;48.50
71297;SHT31;59082;50.658;4.608;2023-03-01T09:17:37;17.68;48.70
71297;SHT31;59082;50.658;4.608;2023-03-01T09:20:03;20.09;47.47
71297;SHT31;59082;50.658;4.608;2023-03-01T09:22:33;19.67;47.13
71297;SHT31;59082;50.658;4.608;2023-03-01T09:24:59;19.65;46.51
71297;SHT31;59082;50.658;4.608;2023-03-01T09:27:25;20.06;47.22
71297;SHT31;59082;50.658;4.608;2023-03-01T09:29:50;20.50;47.79
71297;SHT31;59082;50.658;4.608;2023-03-01T09:32:16;21.19;45.74
71297;SHT31;59082;50.658;4.608;2023-03-01T09:34:41;22.69;44.92
71297;SHT31;59082;50.658;4.608;2023-03-01T09:37:26;20.43;46.38
71297;SHT31;59082;50.658;4.608;2023-03-01T09:39:52;22.46;44.88
71297;SHT31;59082;50.658;4.608;2023-03-01T09:42:17;22.15;44.93
71297;SHT31;59082;50.658;4.608;2023-03-01T09:44:49;19.60;44.88
71297;SHT31;59082;50.658;4.608;2023-03-01T09:47:27;22.93;44.48
71297;SHT31;59082;50.658;4.608;2023-03-01T09:50:12;22.35;44.41
71297;SHT31;59082;50.658;4.608;2023-03-01T09:55:12;17.02;49.95
71297;SHT31;59082;50.658;4.608;2023-03-01T09:57:47;19.86;48.80
71297;SHT31;59082;50.658;4.608;2023-03-01T10:00:32;22.19;44.15
71297;SHT31;59082;50.658;4.608;2023-03-01T10:03:13;23.96;43.14
71297;SHT31;59082;50.658;4.608;2023-03-01T10:06:19;24.37;42.84
71297;SHT31;59082;50.658;4.608;2023-03-01T10:08:56;21.81;44.30
71297;SHT31;59082;50.658;4.608;2023-03-01T10:11:35;22.01;43.01
71297;SHT31;59082;50.658;4.608;2023-03-01T10:16:55;25.13;42.30
71297;SHT31;59082;50.658;4.608;2023-03-01T10:19:42;23.01;41.37
71297;SHT31;59082;50.658;4.608;2023-03-01T10:22:24;26.09;40.79
71297;SHT31;59082;50.658;4.608;2023-03-01T10:24:54;25.54;40.88
71297;SHT31;59082;50.658;4.608;2023-03-01T10:27:24;27.32;39.97
71297;SHT31;59082;50.658;4.608;2023-03-01T10:30:21;26.97;39.08
71297;SHT31;59082;50.658;4.608;2023-03-01T10:32:46;26.37;38.77
71297;SHT31;59082;50.658;4.608;2023-03-01T10:40:23;26.22;38.57
71297;SHT31;59082;50.658;4.608;2023-03-01T10:42:49;26.74;38.56
71297;SHT31;59082;50.658;4.608;2023-03-01T10:45:36;26.30;39.35
71297;SHT31;59082;50.658;4.608;2023-03-01T10:48:16;25.64;39.79
71297;SHT31;59082;50.658;4.608;2023-03-01T10:50:48;28.93;38.18
71297;SHT31;59082;50.658;4.608;2023-03-01T10:55:46;24.68;39.99
71297;SHT31;59082;50.658;4.608;2023-03-01T10:58:18;25.50;39.86
71297;SHT31;59082;50.658;4.608;2023-03-01T11:00:54;25.20;39.05
71297;SHT31;59082;50.658;4.608;2023-03-01T11:03:38;25.22;40.46
71297;SHT31;59082;50.658;4.608;2023-03-01T11:16:32;25.81;39.82
71297;SHT31;59082;50.658;4.608;2023-03-01T11:19:01;26.90;38.69
71297;SHT31;59082;50.658;4.608;2023-03-01T11:21:31;26.09;38.84
71297;SHT31;59082;50.658;4.608;2023-03-01T11:24:01;25.13;39.79
71297;SHT31;59082;50.658;4.608;2023-03-01T11:26:30;24.88;41.01
71297;SHT31;59082;50.658;4.608;2023-03-01T11:29:03;26.42;38.82
71297;SHT31;59082;50.658;4.608;2023-03-01T11:31:29;25.15;39.38
71297;SHT31;59082;50.658;4.608;2023-03-01T11:34:06;26.09;39.51
71297;SHT31;59082;50.658;4.608;2023-03-01T11:36:55;27.11;38.85
71297;SHT31;59082;50.658;4.608;2023-03-01T11:39:32;27.26;39.00
71297;SHT31;59082;50.658;4.608;2023-03-01T11:42:09;26.67;39.37
71297;SHT31;59082;50.658;4.608;2023-03-01T11:44:37;26.25;38.92
71297;SHT31;59082;50.658;4.608;2023-03-01T11:47:07;24.30;39.03
71297;SHT31;59082;50.658;4.608;2023-03-01T11:55:07;24.58;40.93
71297;SHT31;59082;50.658;4.608;2023-03-01T12:09:02;25.16;41.52
71297;SHT31;59082;50.658;4.608;2023-03-01T12:17:06;24.25;40.55
71297;SHT31;59082;50.658;4.608;2023-03-01T12:23:12;21.32;43.78
71297;SHT31;59082;50.658;4.608;2023-03-01T12:48:49;11.55;56.64
71297;SHT31;59082;50.658;4.608;2023-03-01T12:51:20;9.69;58.17
71297;SHT31;59082;50.658;4.608;2023-03-01T12:53:49;9.27;59.67
71297;SHT31;59082;50.658;4.608;2023-03-01T12:56:22;9.42;59.75
71297;SHT31;59082;50.658;4.608;2023-03-01T12:59:12;9.50;60.67
71297;SHT31;59082;50.658;4.608;2023-03-01T13:11:49;9.34;59.50
71297;SHT31;59082;50.658;4.608;2023-03-01T13:16:51;9.57;57.88
71297;SHT31;59082;50.658;4.608;2023-03-01T13:19:25;9.56;58.88
71297;SHT31;59082;50.658;4.608;2023-03-01T13:21:53;7.99;59.86
71297;SHT31;59082;50.658;4.608;2023-03-01T13:29:55;7.52;62.87
71297;SHT31;59082;50.658;4.608;2023-03-01T13:35:02;8.91;60.19
71297;SHT31;59082;50.658;4.608;2023-03-01T13:37:37;7.95;61.79
71297;SHT31;59082;50.658;4.608;2023-03-01T13:42:53;8.12;63.72
71297;SHT31;59082;50.658;4.608;2023-03-01T13:45:34;9.65;61.09
71297;SHT31;59082;50.658;4.608;2023-03-01T13:48:26;8.48;60.20
71297;SHT31;59082;50.658;4.608;2023-03-01T13:50:55;9.05;61.05
71297;SHT31;59082;50.658;4.608;2023-03-01T13:53:25;9.36;59.85
71297;SHT31;59082;50.658;4.608;2023-03-01T13:55:55;9.18;59.55
71297;SHT31;59082;50.658;4.608;2023-03-01T13:58:31;9.97;59.51
71297;SHT31;59082;50.658;4.608;2023-03-01T14:01:03;11.58;56.92
71297;SHT31;59082;50.658;4.608;2023-03-01T14:03:32;13.51;55.12
71297;SHT31;59082;50.658;4.608;2023-03-01T14:06:05;15.26;51.16
71297;SHT31;59082;50.658;4.608;2023-03-01T14:08:33;15.28;50.84
71297;SHT31;59082;50.658;4.608;2023-03-01T14:19:28;12.17;55.78
71297;SHT31;59082;50.658;4.608;2023-03-01T14:24:52;11.16;55.88
71297;SHT31;59082;50.658;4.608;2023-03-01T14:27:19;10.66;56.76
71297;SHT31;59082;50.658;4.608;2023-03-01T14:29:59;8.60;59.62
71297;SHT31;59082;50.658;4.608;2023-03-01T14:32:28;7.91;61.99
71297;SHT31;59082;50.658;4.608;2023-03-01T14:34:54;7.67;62.55
71297;SHT31;59082;50.658;4.608;2023-03-01T14:37:27;7.29;62.54
71297;SHT31;59082;50.658;4.608;2023-03-01T14:39:53;7.09;63.00
71297;SHT31;59082;50.658;4.608;2023-03-01T14:42:22;7.87;62.60
71297;SHT31;59082;50.658;4.608;2023-03-01T14:44:53;8.26;61.31
71297;SHT31;59082;50.658;4.608;2023-03-01T14:47:30;8.36;60.34
71297;SHT31;59082;50.658;4.608;2023-03-01T14:50:03;7.52;61.42
71297;SHT31;59082;50.658;4.608;2023-03-01T14:52:42;7.07;63.04
71297;SHT31;59082;50.658;4.608;2023-03-01T14:55:17;7.33;63.68
71297;SHT31;59082;50.658;4.608;2023-03-01T14:57:46;7.49;62.67
71297;SHT31;59082;50.658;4.608;2023-03-01T15:00:33;6.94;63.56
71297;SHT31;59082;50.658;4.608;2023-03-01T15:03:18;6.87;63.97
71297;SHT31;59082;50.658;4.608;2023-03-01T15:05:45;6.90;63.81
71297;SHT31;59082;50.658;4.608;2023-03-01T15:08:18;6.92;63.60
71297;SHT31;59082;50.658;4.608;2023-03-01T15:10:57;7.66;62.69
71297;SHT31;59082;50.658;4.608;2023-03-01T15:13:25;7.36;63.06
71297;SHT31;59082;50.658;4.608;2023-03-01T15:15:53;7.19;63.68
71297;SHT31;59082;50.658;4.608;2023-03-01T15:18:27;10.24;60.15
71297;SHT31;59082;50.658;4.608;2023-03-01T15:20:54;11.31;57.59
71297;SHT31;59082;50.658;4.608;2023-03-01T15:23:29;10.31;57.37
71297;SHT31;59082;50.658;4.608;2023-03-01T15:25:56;9.31;59.65
71297;SHT31;59082;50.658;4.608;2023-03-01T15:28:28;9.79;59.41
71297;SHT31;59082;50.658;4.608;2023-03-01T15:31:03;9.79;59.03
71297;SHT31;59082;50.658;4.608;2023-03-01T15:33:33;8.69;61.05
71297;SHT31;59082;50.658;4.608;2023-03-01T15:38:52;8.92;61.06
71297;SHT31;59082;50.658;4.608;2023-03-01T15:41:31;7.97;62.48
71297;SHT31;59082;50.658;4.608;2023-03-01T15:44:01;7.39;63.88
71297;SHT31;59082;50.658;4.608;2023-03-01T15:46:39;7.39;64.64
71297;SHT31;59082;50.658;4.608;2023-03-01T15:51:52;6.73;65.31
71297;SHT31;59082;50.658;4.608;2023-03-01T15:54:22;6.76;65.60
71297;SHT31;59082;50.658;4.608;2023-03-01T15:56:49;6.77;65.46
71297;SHT31;59082;50.658;4.608;2023-03-01T15:59:16;6.46;66.50
71297;SHT31;59082;50.658;4.608;2023-03-01T16:01:42;6.12;67.58
71297;SHT31;59082;50.658;4.608;2023-03-01T16:04:19;6.09;68.18
71297;SHT31;59082;50.658;4.608;2023-03-01T16:06:52;5.79;68.53
71297;SHT31;59082;50.658;4.608;2023-03-01T16:09:23;5.68;67.94
71297;SHT31;59082;50.658;4.608;2023-03-01T16:11:49;5.75;67.55
71297;SHT31;59082;50.658;4.608;2023-03-01T16:14:15;6.42;66.63
71297;SHT31;59082;50.658;4.608;2023-03-01T16:16:42;7.05;64.44
71297;SHT31;59082;50.658;4.608;2023-03-01T16:19:07;7.73;62.89
71297;SHT31;59082;50.658;4.608;2023-03-01T16:21:33;7.56;62.88
71297;SHT31;59082;50.658;4.608;2023-03-01T16:23:58;7.76;62.79
71297;SHT31;59082;50.658;4.608;2023-03-01T16:26:24;6.64;64.57
71297;SHT31;59082;50.658;4.608;2023-03-01T16:28:50;6.19;65.78
71297;SHT31;59082;50.658;4.608;2023-03-01T16:31:19;5.67;66.67
71297;SHT31;59082;50.658;4.608;2023-03-01T16:33:45;5.58;66.90
71297;SHT31;59082;50.658;4.608;2023-03-01T16:36:16;5.78;67.04
71297;SHT31;59082;50.658;4.608;2023-03-01T16:38:42;5.99;66.96
71297;SHT31;59082;50.658;4.608;2023-03-01T16:41:15;5.81;66.81
71297;SHT31;59082;50.658;4.608;2023-03-01T16:43:42;5.64;67.25
71297;SHT31;59082;50.658;4.608;2023-03-01T16:46:32;5.48;67.27
71297;SHT31;59082;50.658;4.608;2023-03-01T16:48:58;5.26;68.03
71297;SHT31;59082;50.658;4.608;2023-03-01T16:51:24;4.93;68.75
71297;SHT31;59082;50.658;4.608;2023-03-01T16:53:50;4.65;69.32
71297;SHT31;59082;50.658;4.608;2023-03-01T16:56:18;4.41;69.85
71297;SHT31;59082;50.658;4.608;2023-03-01T16:58:44;4.20;70.76
71297;SHT31;59082;50.658;4.608;2023-03-01T17:01:16;4.06;71.32
71297;SHT31;59082;50.658;4.608;2023-03-01T17:03:43;3.86;71.85
71297;SHT31;59082;50.658;4.608;2023-03-01T17:06:12;3.85;72.30
71297;SHT31;59082;50.658;4.608;2023-03-01T17:08:39;3.71;72.44
71297;SHT31;59082;50.658;4.608;2023-03-01T17:11:06;3.58;72.87
71297;SHT31;59082;50.658;4.608;2023-03-01T17:13:33;3.47;73.35
71297;SHT31;59082;50.658;4.608;2023-03-01T17:16:01;3.36;73.99
71297;SHT31;59082;50.658;4.608;2023-03-01T17:18:27;3.26;74.03
71297;SHT31;59082;50.658;4.608;2023-03-01T17:20:53;3.26;74.13
71297;SHT31;59082;50.658;4.608;2023-03-01T17:23:18;3.15;74.55
71297;SHT31;59082;50.658;4.608;2023-03-01T17:25:44;3.07;74.82
71297;SHT31;59082;50.658;4.608;2023-03-01T17:28:11;2.99;75.16
71297;SHT31;59082;50.658;4.608;2023-03-01T17:30:41;3.03;75.36
71297;SHT31;59082;50.658;4.608;2023-03-01T17:33:06;2.91;75.75
71297;SHT31;59082;50.658;4.608;2023-03-01T17:35:32;2.88;76.00
71297;SHT31;59082;50.658;4.608;2023-03-01T17:38:03;2.74;76.20
71297;SHT31;59082;50.658;4.608;2023-03-01T17:40:29;2.68;76.62
71297;SHT31;59082;50.658;4.608;2023-03-01T17:42:55;2.61;77.10